createdAt,value
2019-05-02T00:01:45.246Z,10.64
2019-05-02T00:04:20.135Z,10.58
2019-05-02T00:07:03.581Z,10.54
2019-05-02T00:09:34.626Z,10.30
2019-05-02T00:12:05.760Z,10.10
2019-05-02T00:14:36.226Z,10.20
2019-05-02T00:17:06.693Z,10.15
2019-05-02T00:19:37.544Z,10.09
2019-05-02T00:22:12.203Z,9.98
2019-05-02T00:24:51.741Z,9.87
2019-05-02T00:27:20.989Z,9.66
2019-05-02T00:29:53.917Z,9.73
2019-05-02T00:32:22.443Z,9.70
2019-05-02T00:34:52.343Z,9.71
2019-05-02T00:37:24.697Z,9.66
2019-05-02T00:39:52.657Z,9.65
2019-05-02T00:42:22.463Z,9.63
2019-05-02T00:44:53.123Z,9.51
2019-05-02T00:47:35.427Z,9.63
2019-05-02T00:50:10.730Z,9.51
2019-05-02T00:52:36.751Z,9.34
2019-05-02T00:55:06.461Z,9.53
2019-05-02T00:57:35.768Z,9.35
2019-05-02T01:00:06.296Z,9.41
2019-05-02T01:02:41.979Z,9.39
2019-05-02T01:05:11.647Z,9.47
2019-05-02T01:07:41.022Z,9.47
2019-05-02T01:10:10.820Z,9.45
2019-05-02T01:12:44.395Z,9.28
2019-05-02T01:15:12.469Z,9.20
2019-05-02T01:17:41.758Z,9.16
2019-05-02T01:20:11.053Z,9.06
2019-05-02T01:22:40.332Z,9.15
2019-05-02T01:25:15.355Z,9.08
2019-05-02T01:27:46.570Z,8.91
2019-05-02T01:30:28.502Z,9.03
2019-05-02T01:33:07.769Z,9.20
2019-05-02T01:36:01.708Z,9.10
2019-05-02T01:38:35.599Z,9.22
2019-05-02T01:41:06.026Z,9.19
2019-05-02T01:43:35.331Z,8.95
2019-05-02T01:46:04.793Z,8.99
2019-05-02T01:48:34.108Z,8.65
2019-05-02T01:51:04.262Z,8.70
2019-05-02T01:53:35.855Z,8.61
2019-05-02T01:56:05.414Z,8.69
2019-05-02T01:58:34.748Z,8.73
2019-05-02T02:01:05.097Z,8.74
2019-05-02T02:03:34.403Z,8.58
2019-05-02T02:06:08.233Z,8.53
2019-05-02T02:08:34.752Z,8.50
2019-05-02T02:11:04.340Z,8.43
2019-05-02T02:13:36.432Z,8.40
2019-05-02T02:16:05.911Z,8.37
2019-05-02T02:18:39.173Z,8.26
2019-05-02T02:21:27.711Z,8.11
2019-05-02T02:24:04.905Z,8.14
2019-05-02T02:26:34.219Z,8.19
2019-05-02T02:29:07.912Z,8.08
2019-05-02T02:31:39.752Z,8.13
2019-05-02T02:34:05.514Z,8.26
2019-05-02T02:36:35.118Z,8.32
2019-05-02T02:39:13.452Z,8.09
2019-05-02T02:41:37.959Z,8.08
2019-05-02T02:44:23.021Z,8.01
2019-05-02T02:46:52.818Z,8.02
2019-05-02T02:49:24.623Z,7.98
2019-05-02T02:51:57.981Z,7.90
2019-05-02T02:54:24.267Z,7.96
2019-05-02T02:56:53.576Z,7.91
2019-05-02T02:59:26.136Z,7.83
2019-05-02T03:01:53.903Z,7.71
2019-05-02T03:04:23.175Z,7.59
2019-05-02T03:06:52.513Z,7.63
2019-05-02T03:09:26.860Z,7.68
2019-05-02T03:12:14.341Z,7.67
2019-05-02T03:14:49.389Z,7.60
2019-05-02T03:17:25.741Z,7.68
2019-05-02T03:19:54.516Z,7.67
2019-05-02T03:22:21.294Z,7.74
2019-05-02T03:24:50.566Z,7.62
2019-05-02T03:27:19.831Z,7.57
2019-05-02T03:29:49.528Z,7.58
2019-05-02T03:32:31.925Z,7.78
2019-05-02T03:34:54.255Z,7.82
2019-05-02T03:37:23.842Z,7.95
2019-05-02T03:39:57.213Z,8.01
2019-05-02T03:42:24.634Z,7.96
2019-05-02T03:44:56.273Z,8.07
2019-05-02T03:47:25.865Z,8.15
2019-05-02T03:49:55.127Z,8.13
2019-05-02T03:52:24.904Z,7.95
2019-05-02T03:54:54.206Z,7.96
2019-05-02T03:57:32.440Z,7.94
2019-05-02T03:59:54.817Z,8.02
2019-05-02T04:02:24.605Z,8.14
2019-05-02T04:04:59.968Z,8.22
2019-05-02T04:07:25.067Z,8.00
2019-05-02T04:09:54.546Z,7.94
2019-05-02T04:12:23.801Z,8.03
2019-05-02T04:14:55.974Z,7.93
2019-05-02T04:17:29.163Z,7.99
2019-05-02T04:19:58.269Z,7.77
2019-05-02T04:22:28.174Z,7.65
2019-05-02T04:24:57.462Z,7.64
2019-05-02T04:27:27.944Z,7.69
2019-05-02T04:30:10.222Z,7.78
2019-05-02T04:32:29.028Z,7.64
2019-05-02T04:34:58.328Z,7.62
2019-05-02T04:37:27.619Z,7.59
2019-05-02T04:39:58.923Z,7.73
2019-05-02T04:42:29.381Z,7.64
2019-05-02T04:45:14.181Z,7.76
2019-05-02T04:47:29.944Z,7.83
2019-05-02T04:49:59.290Z,7.69
2019-05-02T04:52:30.003Z,7.78
2019-05-02T04:55:14.834Z,7.87
2019-05-02T04:57:36.930Z,7.85
2019-05-02T05:00:08.419Z,7.94
2019-05-02T05:02:39.350Z,7.95
2019-05-02T05:05:09.563Z,7.92
2019-05-02T05:07:45.783Z,7.99
2019-05-02T05:10:12.530Z,8.04
2019-05-02T05:12:49.406Z,7.97
2019-05-02T05:15:33.893Z,8.07
2019-05-02T05:17:50.064Z,7.99
2019-05-02T05:20:20.534Z,8.12
2019-05-02T05:22:51.497Z,8.22
2019-05-02T05:25:27.865Z,8.32
2019-05-02T05:28:05.611Z,8.53
2019-05-02T05:30:31.390Z,8.52
2019-05-02T05:33:01.612Z,8.65
2019-05-02T05:35:32.922Z,8.80
2019-05-02T05:38:03.134Z,8.64
2019-05-02T05:40:33.509Z,8.77
2019-05-02T05:43:13.638Z,8.86
2019-05-02T05:45:48.712Z,8.97
2019-05-02T05:48:08.544Z,8.98
2019-05-02T05:50:41.484Z,9.01
2019-05-02T05:53:12.399Z,9.12
2019-05-02T05:55:44.786Z,9.20
2019-05-02T05:58:15.745Z,9.27
2019-05-02T06:00:53.740Z,9.31
2019-05-02T06:03:18.024Z,9.48
2019-05-02T06:05:48.968Z,9.64
2019-05-02T06:08:19.939Z,9.70
2019-05-02T06:10:49.673Z,9.87
2019-05-02T06:13:20.265Z,10.19
2019-05-02T06:16:01.525Z,10.24
2019-05-02T06:18:22.070Z,10.50
2019-05-02T06:20:53.323Z,10.69
2019-05-02T06:23:22.824Z,10.77
2019-05-02T06:25:53.880Z,10.93
2019-05-02T06:28:24.587Z,11.12
2019-05-02T06:30:54.104Z,11.44
2019-05-02T06:33:30.429Z,11.68
2019-05-02T06:36:00.975Z,11.76
2019-05-02T06:38:28.911Z,11.93
2019-05-02T06:41:01.992Z,11.95
2019-05-02T06:43:31.754Z,12.38
2019-05-02T06:46:01.290Z,13.11
2019-05-02T06:48:30.786Z,13.70
2019-05-02T06:51:00.347Z,13.95
2019-05-02T06:53:29.841Z,14.32
2019-05-02T06:56:00.280Z,14.60
2019-05-02T06:58:30.804Z,14.96
2019-05-02T07:01:00.492Z,14.96
2019-05-02T07:03:29.967Z,14.59
2019-05-02T07:06:02.716Z,14.10
2019-05-02T07:08:30.889Z,14.85
2019-05-02T07:11:03.192Z,15.53
2019-05-02T07:13:36.156Z,15.73
2019-05-02T07:16:37.478Z,16.50
2019-05-02T07:19:01.748Z,17.17
2019-05-02T07:21:31.216Z,18.57
2019-05-02T07:24:03.508Z,18.64
2019-05-02T07:26:34.724Z,21.20
2019-05-02T07:29:05.587Z,22.33
2019-05-02T07:31:34.993Z,22.67
2019-05-02T07:34:12.799Z,22.63
2019-05-02T07:36:39.259Z,19.79
2019-05-02T07:39:11.220Z,19.82
2019-05-02T07:41:41.810Z,21.03
2019-05-02T07:44:11.362Z,23.77
2019-05-02T07:46:51.107Z,24.02
2019-05-02T07:49:12.825Z,24.48
2019-05-02T07:51:42.361Z,23.93
2019-05-02T07:54:11.776Z,25.92
2019-05-02T07:56:41.412Z,25.68
2019-05-02T07:59:13.961Z,23.82
2019-05-02T08:01:45.036Z,25.01
2019-05-02T08:04:16.034Z,23.44
2019-05-02T08:06:46.430Z,21.62
2019-05-02T08:09:16.193Z,23.07
2019-05-02T08:11:46.880Z,23.53
2019-05-02T08:14:16.411Z,24.68
2019-05-02T08:16:45.774Z,23.85
2019-05-02T08:19:15.244Z,25.81
2019-05-02T08:21:44.865Z,26.52
2019-05-02T08:24:15.326Z,26.13
2019-05-02T08:26:58.282Z,27.71
2019-05-02T08:29:29.179Z,26.51
2019-05-02T08:31:59.703Z,28.21
2019-05-02T08:34:33.262Z,27.91
2019-05-02T08:37:04.595Z,27.23
2019-05-02T08:39:35.191Z,26.04
2019-05-02T08:42:06.371Z,28.29
2019-05-02T08:44:49.618Z,29.04
2019-05-02T08:47:18.437Z,28.52
2019-05-02T08:49:38.849Z,28.03
2019-05-02T08:52:09.928Z,26.93
2019-05-02T08:54:40.478Z,27.76
2019-05-02T08:57:10.942Z,27.71
2019-05-02T08:59:40.957Z,28.30
2019-05-02T09:02:10.500Z,26.74
2019-05-02T09:04:40.119Z,29.13
2019-05-02T09:07:11.159Z,28.75
2019-05-02T09:09:40.750Z,29.15
2019-05-02T09:12:14.971Z,27.65
2019-05-02T09:14:42.886Z,28.18
2019-05-02T09:17:16.401Z,28.51
2019-05-02T09:19:43.251Z,28.41
2019-05-02T09:22:16.676Z,27.26
2019-05-02T09:24:44.985Z,28.74
2019-05-02T09:27:16.066Z,28.45
2019-05-02T09:29:45.957Z,27.94
2019-05-02T09:32:17.144Z,26.58
2019-05-02T09:34:48.678Z,28.40
2019-05-02T09:37:18.117Z,28.98
2019-05-02T09:39:47.490Z,29.02
2019-05-02T09:42:19.053Z,28.21
2019-05-02T09:44:52.352Z,29.34
2019-05-02T09:47:27.326Z,28.54
2019-05-02T09:50:13.286Z,28.73
2019-05-02T09:52:44.171Z,27.32
2019-05-02T09:55:14.100Z,25.45
2019-05-02T09:57:44.848Z,25.35
2019-05-02T10:00:32.407Z,26.74
2019-05-02T10:02:58.577Z,24.16
2019-05-02T10:05:27.920Z,22.87
2019-05-02T10:08:02.040Z,21.97
2019-05-02T10:10:29.256Z,21.04
2019-05-02T10:12:58.597Z,21.74
2019-05-02T10:15:28.055Z,22.67
2019-05-02T10:18:08.769Z,21.74
2019-05-02T10:20:34.006Z,19.95
2019-05-02T10:22:59.354Z,19.12
2019-05-02T10:25:30.760Z,19.22
2019-05-02T10:28:01.961Z,19.21
2019-05-02T10:30:35.849Z,18.76
2019-05-02T10:33:04.009Z,19.48
2019-05-02T10:35:40.603Z,20.25
2019-05-02T10:38:09.404Z,20.42
2019-05-02T10:40:39.076Z,20.32
2019-05-02T10:43:11.746Z,20.77
2019-05-02T10:45:47.517Z,21.22
2019-05-02T10:48:24.738Z,21.67
2019-05-02T10:50:49.958Z,20.46
2019-05-02T10:53:19.295Z,20.15
2019-05-02T10:55:48.640Z,19.47
2019-05-02T10:58:17.938Z,19.07
2019-05-02T11:00:48.735Z,20.25
2019-05-02T11:03:27.716Z,20.25
2019-05-02T11:06:03.626Z,20.55
2019-05-02T11:08:46.025Z,20.98
2019-05-02T11:11:16.110Z,20.99
2019-05-02T11:14:01.032Z,21.05
2019-05-02T11:16:42.712Z,20.62
2019-05-02T11:19:17.687Z,20.22
2019-05-02T11:21:56.338Z,20.18
2019-05-02T11:24:22.419Z,20.13
2019-05-02T11:26:52.806Z,21.08
2019-05-02T11:29:22.903Z,20.98
2019-05-02T11:31:52.260Z,20.12
2019-05-02T11:34:22.070Z,19.51
2019-05-02T11:36:52.645Z,18.88
2019-05-02T11:39:31.638Z,19.24
2019-05-02T11:41:53.374Z,19.24
2019-05-02T11:44:24.149Z,19.38
2019-05-02T11:46:53.498Z,19.61
2019-05-02T11:49:22.944Z,19.81
2019-05-02T11:51:56.917Z,19.69
2019-05-02T11:54:23.237Z,19.89
2019-05-02T11:56:53.596Z,19.70
2019-05-02T11:59:27.994Z,19.53
2019-05-02T12:02:17.458Z,19.20
2019-05-02T12:04:47.236Z,18.94
2019-05-02T12:07:16.014Z,18.97
2019-05-02T12:09:55.179Z,18.97
2019-05-02T12:12:16.453Z,19.60
2019-05-02T12:14:45.777Z,20.11
2019-05-02T12:17:15.087Z,20.23
2019-05-02T12:19:44.407Z,19.93
2019-05-02T12:22:16.902Z,20.49
2019-05-02T12:24:45.434Z,20.83
2019-05-02T12:27:14.875Z,20.81
2019-05-02T12:29:44.159Z,20.23
2019-05-02T12:32:15.564Z,19.94
2019-05-02T12:34:44.717Z,20.49
2019-05-02T12:37:14.038Z,20.92
2019-05-02T12:39:43.342Z,20.64
2019-05-02T12:42:13.166Z,20.32
2019-05-02T12:44:42.832Z,19.92
2019-05-02T12:47:12.105Z,19.63
2019-05-02T12:49:42.837Z,19.63
2019-05-02T12:52:12.959Z,19.75
2019-05-02T12:54:42.398Z,19.85
2019-05-02T12:57:12.517Z,19.94
2019-05-02T12:59:41.955Z,19.76
2019-05-02T13:02:17.400Z,19.57
2019-05-02T13:04:48.324Z,19.38
2019-05-02T13:07:17.591Z,19.63
2019-05-02T13:09:46.947Z,19.56
2019-05-02T13:12:22.770Z,19.80
2019-05-02T13:14:53.277Z,19.82
2019-05-02T13:17:23.713Z,19.55
2019-05-02T13:19:57.054Z,19.48
2019-05-02T13:22:52.692Z,19.34
2019-05-02T13:25:27.328Z,19.41
2019-05-02T13:27:53.873Z,19.38
2019-05-02T13:30:48.542Z,19.24
2019-05-02T13:33:27.343Z,19.24
2019-05-02T13:35:59.195Z,19.63
2019-05-02T13:38:28.702Z,19.64
2019-05-02T13:40:58.364Z,19.50
2019-05-02T13:43:32.429Z,19.51
2019-05-02T13:46:12.836Z,19.28
2019-05-02T13:48:44.524Z,19.28
2019-05-02T13:51:13.899Z,19.43
2019-05-02T13:54:08.186Z,19.26
2019-05-02T13:56:52.386Z,19.26
2019-05-02T13:59:22.525Z,19.22
2019-05-02T14:01:53.845Z,18.85
2019-05-02T14:04:23.609Z,18.89
2019-05-02T14:06:53.143Z,18.89
2019-05-02T14:09:44.589Z,19.14
2019-05-02T14:12:43.503Z,18.97
2019-05-02T14:15:13.973Z,18.51
2019-05-02T14:17:43.220Z,18.83
2019-05-02T14:20:13.759Z,18.83
2019-05-02T14:22:44.464Z,18.85
2019-05-02T14:25:13.875Z,19.15
2019-05-02T14:27:46.935Z,19.12
2019-05-02T14:30:14.886Z,19.16
2019-05-02T14:32:44.233Z,19.16
2019-05-02T14:35:28.003Z,19.25
2019-05-02T14:38:14.585Z,19.28
2019-05-02T14:41:12.442Z,18.70
2019-05-02T14:43:53.498Z,18.80
2019-05-02T14:46:29.003Z,19.17
2019-05-02T14:48:56.791Z,19.04
2019-05-02T14:51:27.891Z,18.89
2019-05-02T14:54:02.200Z,18.72
2019-05-02T14:56:43.367Z,18.32
2019-05-02T14:59:15.186Z,18.32
2019-05-02T15:01:47.054Z,18.59
2019-05-02T15:04:16.434Z,18.69
2019-05-02T15:06:47.936Z,19.01
2019-05-02T15:09:24.857Z,19.01
2019-05-02T15:12:03.386Z,19.07
2019-05-02T15:14:58.674Z,18.74
2019-05-02T15:17:33.681Z,18.74
2019-05-02T15:20:02.798Z,18.97
2019-05-02T15:22:37.437Z,18.91
2019-05-02T15:25:07.971Z,18.80
2019-05-02T15:27:41.981Z,18.74
2019-05-02T15:30:09.119Z,18.82
2019-05-02T15:32:47.472Z,18.65
2019-05-02T15:35:36.379Z,18.65
2019-05-02T15:38:06.881Z,18.70
2019-05-02T15:40:48.137Z,18.54
2019-05-02T15:43:09.556Z,18.55
2019-05-02T15:45:42.018Z,18.55
2019-05-02T15:48:09.434Z,18.43
2019-05-02T15:50:48.740Z,18.45
2019-05-02T15:53:16.121Z,18.57
2019-05-02T15:55:45.468Z,18.66
2019-05-02T15:58:22.927Z,18.53
2019-05-02T16:01:15.031Z,18.67
2019-05-02T16:03:47.614Z,18.51
2019-05-02T16:06:23.999Z,18.58
2019-05-02T16:08:47.970Z,18.45
2019-05-02T16:11:18.507Z,18.39
2019-05-02T16:13:52.552Z,18.50
2019-05-02T16:16:21.939Z,18.56
2019-05-02T16:18:52.503Z,18.59
2019-05-02T16:21:43.179Z,18.58
2019-05-02T16:24:23.205Z,18.70
2019-05-02T16:26:56.649Z,18.70
2019-05-02T16:29:28.370Z,18.63
2019-05-02T16:32:18.145Z,18.46
2019-05-02T16:34:54.659Z,18.39
2019-05-02T16:37:24.548Z,18.23
2019-05-02T16:39:53.829Z,18.23
2019-05-02T16:42:23.160Z,18.26
2019-05-02T16:44:54.766Z,18.22
2019-05-02T16:47:23.493Z,18.35
2019-05-02T16:49:56.490Z,18.35
2019-05-02T16:52:24.320Z,18.35
2019-05-02T16:54:53.648Z,18.28
2019-05-02T16:57:24.059Z,18.00
2019-05-02T17:00:01.669Z,17.90
2019-05-02T17:02:25.529Z,17.91
2019-05-02T17:04:55.010Z,17.79
2019-05-02T17:07:42.942Z,17.79
2019-05-02T17:10:22.100Z,17.77
2019-05-02T17:12:52.853Z,17.74
2019-05-02T17:15:42.711Z,17.67
2019-05-02T17:18:13.428Z,17.58
2019-05-02T17:20:46.798Z,17.53
2019-05-02T17:23:14.084Z,17.53
2019-05-02T17:25:43.389Z,17.31
2019-05-02T17:28:13.514Z,17.33
2019-05-02T17:30:43.207Z,17.24
2019-05-02T17:33:16.050Z,17.27
2019-05-02T17:35:49.366Z,17.12
2019-05-02T17:38:19.101Z,16.99
2019-05-02T17:40:45.861Z,16.90
2019-05-02T17:43:15.508Z,16.91
2019-05-02T17:45:45.020Z,16.86
2019-05-02T17:48:16.069Z,16.82
2019-05-02T17:51:03.158Z,16.72
2019-05-02T17:53:33.943Z,16.61
2019-05-02T17:56:03.484Z,16.57
2019-05-02T17:58:33.159Z,16.46
2019-05-02T18:01:04.170Z,16.50
2019-05-02T18:03:35.435Z,16.49
2019-05-02T18:06:07.523Z,16.48
2019-05-02T18:08:35.920Z,16.49
2019-05-02T18:11:05.734Z,16.40
2019-05-02T18:13:35.430Z,16.25
2019-05-02T18:16:07.645Z,16.33
2019-05-02T18:18:37.553Z,16.15
2019-05-02T18:21:07.410Z,16.11
2019-05-02T18:23:36.706Z,16.19
2019-05-02T18:26:06.523Z,16.22
2019-05-02T18:28:46.208Z,16.08
2019-05-02T18:31:06.882Z,16.13
2019-05-02T18:33:41.121Z,15.87
2019-05-02T18:36:11.245Z,15.80
2019-05-02T18:38:41.748Z,15.85
2019-05-02T18:41:12.059Z,15.73
2019-05-02T18:43:45.246Z,15.79
2019-05-02T18:46:14.028Z,15.83
2019-05-02T18:48:46.826Z,15.69
2019-05-02T18:51:17.177Z,15.75
2019-05-02T18:53:46.197Z,15.79
2019-05-02T18:56:15.742Z,15.72
2019-05-02T18:58:46.034Z,15.67
2019-05-02T19:01:17.833Z,15.83
2019-05-02T19:03:51.826Z,15.71
2019-05-02T19:06:21.880Z,15.60
2019-05-02T19:08:52.269Z,15.61
2019-05-02T19:11:26.758Z,15.48
2019-05-02T19:13:55.879Z,15.49
2019-05-02T19:16:28.668Z,15.56
2019-05-02T19:19:01.720Z,15.74
2019-05-02T19:21:35.982Z,15.69
2019-05-02T19:24:05.231Z,15.71
2019-05-02T19:26:36.254Z,15.57
2019-05-02T19:29:22.112Z,15.56
2019-05-02T19:31:53.662Z,15.63
2019-05-02T19:34:26.895Z,15.85
2019-05-02T19:36:57.875Z,15.70
2019-05-02T19:39:32.065Z,15.54
2019-05-02T19:42:02.317Z,15.74
2019-05-02T19:44:33.936Z,15.66
2019-05-02T19:47:08.315Z,15.72
2019-05-02T19:49:37.115Z,15.58
2019-05-02T19:52:08.100Z,15.75
2019-05-02T19:54:41.143Z,15.69
2019-05-02T19:57:11.863Z,15.84
2019-05-02T19:59:43.449Z,15.81
2019-05-02T20:02:14.500Z,15.71
2019-05-02T20:04:45.918Z,15.77
2019-05-02T20:07:16.530Z,15.60
2019-05-02T20:09:49.662Z,15.29
2019-05-02T20:12:21.930Z,15.14
2019-05-02T20:14:53.467Z,15.06
2019-05-02T20:17:24.029Z,14.99
2019-05-02T20:19:57.877Z,14.97
2019-05-02T20:22:31.550Z,14.96
2019-05-02T20:25:03.858Z,14.94
2019-05-02T20:27:33.819Z,14.69
2019-05-02T20:30:03.521Z,14.56
2019-05-02T20:32:33.025Z,14.49
2019-05-02T20:35:02.844Z,14.34
2019-05-02T20:37:32.563Z,14.27
2019-05-02T20:40:02.892Z,14.09
2019-05-02T20:42:32.506Z,14.08
2019-05-02T20:45:02.411Z,14.05
2019-05-02T20:47:32.268Z,14.02
2019-05-02T20:50:02.665Z,14.02
2019-05-02T20:52:32.442Z,13.98
2019-05-02T20:55:01.900Z,13.90
2019-05-02T20:57:31.767Z,13.86
2019-05-02T21:00:01.796Z,13.74
2019-05-02T21:02:31.900Z,13.76
2019-05-02T21:05:02.730Z,13.80
2019-05-02T21:07:50.149Z,13.70
2019-05-02T21:10:24.256Z,13.61
2019-05-02T21:12:53.568Z,13.68
2019-05-02T21:15:22.843Z,13.59
2019-05-02T21:17:52.151Z,13.53
2019-05-02T21:20:21.988Z,13.54
2019-05-02T21:22:52.998Z,13.60
2019-05-02T21:25:23.235Z,13.54
2019-05-02T21:27:52.844Z,13.46
2019-05-02T21:30:26.626Z,13.50
2019-05-02T21:32:56.052Z,13.48
2019-05-02T21:35:25.363Z,13.37
2019-05-02T21:37:54.763Z,13.27
2019-05-02T21:40:25.776Z,13.19
2019-05-02T21:42:55.059Z,13.13
2019-05-02T21:45:26.750Z,13.10
2019-05-02T21:47:56.142Z,13.06
2019-05-02T21:50:43.219Z,13.14
2019-05-02T21:53:54.971Z,13.04
2019-05-02T21:56:33.855Z,13.08
2019-05-02T21:59:07.767Z,13.02
2019-05-02T22:01:44.354Z,12.89
2019-05-02T22:04:13.750Z,12.93
2019-05-02T22:06:43.030Z,12.95
2019-05-02T22:09:12.913Z,13.03
2019-05-02T22:11:43.010Z,12.97
2019-05-02T22:14:13.287Z,12.91
2019-05-02T22:16:42.994Z,12.86
2019-05-02T22:19:12.704Z,12.82
2019-05-02T22:21:43.023Z,12.81
2019-05-02T22:24:14.462Z,12.83
2019-05-02T22:26:49.600Z,12.89
2019-05-02T22:29:18.924Z,12.80
2019-05-02T22:31:48.245Z,12.70
2019-05-02T22:34:17.603Z,12.67
2019-05-02T22:36:46.889Z,12.61
2019-05-02T22:39:33.802Z,12.59
2019-05-02T22:42:04.587Z,12.42
2019-05-02T22:44:35.577Z,12.43
2019-05-02T22:47:04.826Z,12.59
2019-05-02T22:49:34.116Z,12.49
2019-05-02T22:52:03.646Z,12.52
2019-05-02T22:54:33.865Z,12.57
2019-05-02T22:57:03.303Z,12.51
2019-05-02T22:59:32.671Z,12.47
2019-05-02T23:02:02.272Z,12.48
2019-05-02T23:04:32.539Z,12.37
2019-05-02T23:07:03.213Z,12.43
2019-05-02T23:09:32.599Z,12.22
2019-05-02T23:12:03.012Z,12.28
2019-05-02T23:14:32.625Z,12.38
2019-05-02T23:17:02.325Z,12.34
2019-05-02T23:19:31.871Z,12.30
2019-05-02T23:22:02.051Z,12.18
2019-05-02T23:24:53.393Z,12.09
2019-05-02T23:27:38.735Z,12.06
2019-05-02T23:30:11.592Z,12.17
2019-05-02T23:32:42.370Z,12.17
2019-05-02T23:35:12.302Z,12.16
2019-05-02T23:37:42.348Z,12.08
2019-05-02T23:40:12.465Z,12.06
2019-05-02T23:42:41.840Z,12.11
2019-05-02T23:45:12.179Z,12.06
2019-05-02T23:47:42.174Z,12.12
2019-05-02T23:50:12.197Z,12.05
2019-05-02T23:52:41.491Z,12.12
2019-05-02T23:55:12.197Z,12.08
2019-05-02T23:57:42.167Z,12.09
